Terminal Aerodrome Forecast
Issued by NWS

Home | Current Version | Previous Version | Text Only | Print | Product List | Glossary On
Versions: 1 2 3 4 5 6 7 8 9 10 11 12 13 14 15 16 17 18 19 20 21 22 23
000
FTUS45 KPSR 251700
TAFSDL
TAF
KSDL 251726Z 2518/2618 VRB04KT P6SM SCT250
     FM260700 VRB04KT P6SM FEW120 BKN250
     FM261100 VRB03KT P6SM SCT070 BKN090 OVC200=

USA.gov is the U.S. government's official web portal to all federal, state and local government web resources and services.